createdAt,value
2019-02-26T00:01:01.834Z,-1.83
2019-02-26T00:02:05.473Z,-1.75
2019-02-26T00:03:09.116Z,-1.75
2019-02-26T00:04:12.769Z,-1.80
2019-02-26T00:05:19.348Z,-1.84
2019-02-26T00:06:24.890Z,-1.80
2019-02-26T00:07:29.847Z,-1.83
2019-02-26T00:08:33.587Z,-1.90
2019-02-26T00:09:37.667Z,-1.91
2019-02-26T00:10:41.347Z,-1.90
2019-02-26T00:11:45.056Z,-1.94
2019-02-26T00:12:48.720Z,-1.93
2019-02-26T00:13:54.421Z,-1.88
2019-02-26T00:15:00.218Z,-1.86
2019-02-26T00:16:05.618Z,-1.87
2019-02-26T00:17:10.574Z,-1.84
2019-02-26T00:18:16.139Z,-1.82
2019-02-26T00:19:19.246Z,-1.74
2019-02-26T00:20:22.879Z,-1.66
2019-02-26T00:21:28.677Z,-1.59
2019-02-26T00:22:32.725Z,-1.54
2019-02-26T00:23:37.637Z,-1.55
2019-02-26T00:24:42.641Z,-1.56
2019-02-26T00:25:46.867Z,-1.61
2019-02-26T00:26:50.541Z,-1.61
2019-02-26T00:27:56.345Z,-1.71
2019-02-26T00:29:01.426Z,-1.81
2019-02-26T00:30:11.286Z,-1.87
2019-02-26T00:31:15.471Z,-2.00
2019-02-26T00:32:19.157Z,-2.15
2019-02-26T00:33:24.668Z,-2.15
2019-02-26T00:34:29.920Z,-2.12
2019-02-26T00:35:33.442Z,-2.08
2019-02-26T00:36:38.157Z,-2.10
2019-02-26T00:37:43.635Z,-2.06
2019-02-26T00:38:47.320Z,-2.06
2019-02-26T00:39:51.780Z,-2.01
2019-02-26T00:40:57.811Z,-1.91
2019-02-26T00:42:02.704Z,-1.83
2019-02-26T00:43:07.111Z,-1.76
2019-02-26T00:44:10.761Z,-1.78
2019-02-26T00:45:14.907Z,-1.93
2019-02-26T00:46:18.549Z,-2.05
2019-02-26T00:47:22.118Z,-2.12
2019-02-26T00:48:25.787Z,-2.12
2019-02-26T00:49:30.217Z,-2.20
2019-02-26T00:50:35.690Z,-2.25
2019-02-26T00:51:41.745Z,-2.30
2019-02-26T00:52:44.606Z,-2.38
2019-02-26T00:53:50.835Z,-2.37
2019-02-26T00:54:57.446Z,-2.40
2019-02-26T00:56:01.069Z,-2.43
2019-02-26T00:57:08.112Z,-2.36
2019-02-26T00:58:10.830Z,-2.27
2019-02-26T00:59:15.248Z,-2.29
2019-02-26T01:00:18.889Z,-2.32
2019-02-26T01:01:23.862Z,-2.23
2019-02-26T01:02:27.882Z,-2.13
2019-02-26T01:03:31.523Z,-2.04
2019-02-26T01:04:35.199Z,-2.02
2019-02-26T01:05:40.841Z,-2.02
2019-02-26T01:06:44.055Z,-2.00
2019-02-26T01:07:51.468Z,-1.99
2019-02-26T01:08:53.093Z,-2.02
2019-02-26T01:09:57.480Z,-2.03
2019-02-26T01:11:03.921Z,-2.10
2019-02-26T01:12:09.201Z,-2.21
2019-02-26T01:13:12.872Z,-2.21
2019-02-26T01:14:18.580Z,-2.27
2019-02-26T01:15:22.418Z,-2.34
2019-02-26T01:16:26.055Z,-2.29
2019-02-26T01:17:31.243Z,-2.29
2019-02-26T01:18:35.126Z,-2.29
2019-02-26T01:19:40.626Z,-2.28
2019-02-26T01:20:44.176Z,-2.32
2019-02-26T01:21:47.798Z,-2.30
2019-02-26T01:22:51.508Z,-2.22
2019-02-26T01:23:56.615Z,-2.13
2019-02-26T01:25:00.510Z,-2.07
2019-02-26T01:26:04.171Z,-2.08
2019-02-26T01:27:07.804Z,-2.16
2019-02-26T01:28:14.110Z,-2.26
2019-02-26T01:29:20.630Z,-2.34
2019-02-26T01:30:24.337Z,-2.47
2019-02-26T01:31:29.249Z,-2.50
2019-02-26T01:32:32.837Z,-2.49
2019-02-26T01:33:36.473Z,-2.53
2019-02-26T01:34:40.893Z,-2.67
2019-02-26T01:35:45.475Z,-2.74
2019-02-26T01:36:49.629Z,-2.76
2019-02-26T01:37:55.419Z,-2.78
2019-02-26T01:38:58.819Z,-2.76
2019-02-26T01:40:02.451Z,-2.75
2019-02-26T01:41:06.079Z,-2.78
2019-02-26T01:42:10.691Z,-2.80
2019-02-26T01:43:15.117Z,-2.81
2019-02-26T01:44:18.722Z,-2.71
2019-02-26T01:45:24.267Z,-2.63
2019-02-26T01:46:27.723Z,-2.59
2019-02-26T01:47:31.391Z,-2.70
2019-02-26T01:48:36.635Z,-2.72
2019-02-26T01:49:41.853Z,-2.76
2019-02-26T01:50:46.342Z,-2.78
2019-02-26T01:51:51.691Z,-2.91
2019-02-26T01:52:56.781Z,-3.04
2019-02-26T01:54:00.565Z,-3.06
2019-02-26T01:55:05.025Z,-3.06
2019-02-26T01:56:08.646Z,-3.11
2019-02-26T01:57:12.282Z,-3.11
2019-02-26T01:58:16.693Z,-3.18
2019-02-26T01:59:20.458Z,-3.16
2019-02-26T02:00:25.941Z,-3.23
2019-02-26T02:01:29.678Z,-3.22
2019-02-26T02:02:33.249Z,-3.21
2019-02-26T02:03:36.946Z,-3.19
2019-02-26T02:04:41.261Z,-3.11
2019-02-26T02:05:47.945Z,-3.06
2019-02-26T02:06:51.655Z,-3.03
2019-02-26T02:07:55.989Z,-2.93
2019-02-26T02:08:59.750Z,-2.88
2019-02-26T02:10:03.895Z,-2.82
2019-02-26T02:11:09.202Z,-2.82
2019-02-26T02:12:12.973Z,-2.89
2019-02-26T02:13:16.615Z,-2.98
2019-02-26T02:14:20.232Z,-2.99
2019-02-26T02:15:24.028Z,-3.03
2019-02-26T02:16:29.610Z,-3.05
2019-02-26T02:17:33.824Z,-3.03
2019-02-26T02:18:38.357Z,-2.98
2019-02-26T02:19:42.026Z,-2.95
2019-02-26T02:20:46.361Z,-2.92
2019-02-26T02:21:51.512Z,-3.01
2019-02-26T02:22:56.049Z,-3.05
2019-02-26T02:24:00.746Z,-3.10
2019-02-26T02:25:05.424Z,-3.08
2019-02-26T02:26:11.073Z,-3.07
2019-02-26T02:27:17.467Z,-2.99
2019-02-26T02:28:23.667Z,-2.89
2019-02-26T02:29:28.068Z,-2.83
2019-02-26T02:30:31.748Z,-2.89
2019-02-26T02:31:37.808Z,-2.96
2019-02-26T02:32:41.464Z,-2.98
2019-02-26T02:33:45.388Z,-3.02
2019-02-26T02:34:49.034Z,-3.02
2019-02-26T02:35:52.697Z,-3.03
2019-02-26T02:36:56.265Z,-3.04
2019-02-26T02:38:02.106Z,-3.13
2019-02-26T02:39:10.365Z,-3.17
2019-02-26T02:40:13.671Z,-3.20
2019-02-26T02:41:17.348Z,-3.18
2019-02-26T02:42:22.007Z,-3.19
2019-02-26T02:43:25.854Z,-3.15
2019-02-26T02:44:29.638Z,-3.15
2019-02-26T02:45:33.281Z,-3.14
2019-02-26T02:46:39.171Z,-3.14
2019-02-26T02:47:42.241Z,-3.11
2019-02-26T02:48:45.885Z,-3.08
2019-02-26T02:49:49.537Z,-3.08
2019-02-26T02:50:53.198Z,-3.04
2019-02-26T02:51:58.864Z,-3.03
2019-02-26T02:53:03.992Z,-3.08
2019-02-26T02:54:07.882Z,-3.06
2019-02-26T02:55:13.856Z,-3.06
2019-02-26T02:56:17.955Z,-3.09
2019-02-26T02:57:24.202Z,-3.16
2019-02-26T02:58:27.144Z,-3.16
2019-02-26T02:59:33.432Z,-3.18
2019-02-26T03:00:36.225Z,-3.19
2019-02-26T03:01:39.861Z,-3.15
2019-02-26T03:02:46.488Z,-3.21
2019-02-26T03:03:50.514Z,-3.28
2019-02-26T03:04:54.186Z,-3.36
2019-02-26T03:05:58.454Z,-3.41
2019-02-26T03:07:03.575Z,-3.47
2019-02-26T03:08:08.085Z,-3.47
2019-02-26T03:09:16.814Z,-3.48
2019-02-26T03:10:19.665Z,-3.51
2019-02-26T03:11:23.304Z,-3.39
2019-02-26T03:12:26.876Z,-3.27
2019-02-26T03:13:30.537Z,-3.25
2019-02-26T03:14:36.420Z,-3.24
2019-02-26T03:15:39.479Z,-3.37
2019-02-26T03:16:45.019Z,-3.53
2019-02-26T03:17:48.638Z,-3.62
2019-02-26T03:18:52.277Z,-3.66
2019-02-26T03:19:57.987Z,-3.66
2019-02-26T03:21:04.924Z,-3.67
2019-02-26T03:22:12.788Z,-3.72
2019-02-26T03:23:19.799Z,-3.78
2019-02-26T03:24:24.989Z,-3.85
2019-02-26T03:25:29.148Z,-3.81
2019-02-26T03:26:32.927Z,-3.93
2019-02-26T03:27:39.932Z,-3.93
2019-02-26T03:28:44.449Z,-3.85
2019-02-26T03:29:49.809Z,-3.89
2019-02-26T03:30:53.156Z,-3.90
2019-02-26T03:31:56.723Z,-3.91
2019-02-26T03:33:04.114Z,-3.90
2019-02-26T03:34:10.519Z,-3.82
2019-02-26T03:35:13.247Z,-3.80
2019-02-26T03:36:17.177Z,-3.72
2019-02-26T03:37:23.361Z,-3.77
2019-02-26T03:38:28.906Z,-3.80
2019-02-26T03:39:34.574Z,-3.82
2019-02-26T03:40:38.008Z,-3.88
2019-02-26T03:41:43.191Z,-3.92
2019-02-26T03:42:47.312Z,-3.98
2019-02-26T03:43:50.949Z,-3.85
2019-02-26T03:44:54.580Z,-3.71
2019-02-26T03:45:58.246Z,-3.64
2019-02-26T03:47:01.883Z,-3.65
2019-02-26T03:48:05.527Z,-3.67
2019-02-26T03:49:09.166Z,-3.65
2019-02-26T03:50:16.255Z,-3.71
2019-02-26T03:51:20.224Z,-3.77
2019-02-26T03:52:23.856Z,-3.79
2019-02-26T03:53:30.198Z,-3.76
2019-02-26T03:54:32.724Z,-3.74
2019-02-26T03:55:38.810Z,-3.78
2019-02-26T03:56:42.071Z,-3.80
2019-02-26T03:57:47.336Z,-3.78
2019-02-26T03:58:54.372Z,-3.80
2019-02-26T03:59:56.720Z,-3.78
2019-02-26T04:01:04.513Z,-3.72
2019-02-26T04:02:07.291Z,-3.72
2019-02-26T04:03:12.454Z,-3.72
2019-02-26T04:04:17.015Z,-3.74
2019-02-26T04:05:20.660Z,-3.69
2019-02-26T04:06:24.299Z,-3.68
2019-02-26T04:07:30.181Z,-3.72
2019-02-26T04:08:33.334Z,-3.80
2019-02-26T04:09:39.180Z,-3.77
2019-02-26T04:10:42.444Z,-3.83
2019-02-26T04:11:49.610Z,-3.84
2019-02-26T04:12:54.670Z,-3.83
2019-02-26T04:13:57.163Z,-3.89
2019-02-26T04:15:00.787Z,-3.83
2019-02-26T04:16:04.851Z,-3.71
2019-02-26T04:17:09.060Z,-3.63
2019-02-26T04:18:12.836Z,-3.66
2019-02-26T04:19:16.478Z,-3.66
2019-02-26T04:20:20.420Z,-3.66
2019-02-26T04:21:24.053Z,-3.74
2019-02-26T04:22:32.761Z,-3.87
2019-02-26T04:23:38.816Z,-3.82
2019-02-26T04:24:41.795Z,-3.88
2019-02-26T04:26:04.915Z,-3.83
2019-02-26T04:27:23.313Z,-3.87
2019-02-26T04:28:37.133Z,-3.98
2019-02-26T04:29:43.668Z,-4.05
2019-02-26T04:30:58.880Z,-4.09
2019-02-26T04:32:15.045Z,-4.09
2019-02-26T04:33:48.329Z,-4.05
2019-02-26T04:34:56.910Z,-4.02
2019-02-26T04:36:12.549Z,-4.00
2019-02-26T04:37:27.363Z,-4.02
2019-02-26T04:38:45.525Z,-4.12
2019-02-26T04:39:59.202Z,-4.22
2019-02-26T04:41:06.078Z,-4.32
2019-02-26T04:42:15.374Z,-4.35
2019-02-26T04:43:25.286Z,-4.44
2019-02-26T04:44:40.239Z,-4.44
2019-02-26T04:46:17.450Z,-4.50
2019-02-26T04:47:24.232Z,-4.40
2019-02-26T04:48:34.333Z,-4.37
2019-02-26T04:49:42.118Z,-4.24
2019-02-26T04:50:44.586Z,-4.23
2019-02-26T04:51:50.451Z,-4.34
2019-02-26T04:52:58.293Z,-4.29
2019-02-26T04:54:02.019Z,-4.21
2019-02-26T04:55:07.014Z,-4.20
2019-02-26T04:56:12.876Z,-4.12
2019-02-26T04:57:16.045Z,-4.10
2019-02-26T04:58:20.742Z,-4.01
2019-02-26T04:59:25.337Z,-4.01
2019-02-26T05:00:32.144Z,-3.93
2019-02-26T05:01:34.789Z,-3.80
2019-02-26T05:02:38.576Z,-3.68
2019-02-26T05:03:42.325Z,-3.58
2019-02-26T05:04:46.019Z,-3.71
2019-02-26T05:05:53.704Z,-3.78
2019-02-26T05:06:55.034Z,-3.93
2019-02-26T05:07:58.723Z,-3.96
2019-02-26T05:09:02.917Z,-4.03
2019-02-26T05:10:08.646Z,-4.08
2019-02-26T05:11:17.434Z,-4.08
2019-02-26T05:12:17.637Z,-4.19
2019-02-26T05:13:22.765Z,-4.33
2019-02-26T05:14:26.610Z,-4.45
2019-02-26T05:15:33.076Z,-4.43
2019-02-26T05:16:37.835Z,-4.40
2019-02-26T05:17:40.984Z,-4.38
2019-02-26T05:18:47.037Z,-4.35
2019-02-26T05:19:51.739Z,-4.41
2019-02-26T05:20:55.559Z,-4.35
2019-02-26T05:22:01.405Z,-4.37
2019-02-26T05:23:06.288Z,-4.43
2019-02-26T05:24:12.420Z,-4.48
2019-02-26T05:25:19.178Z,-4.55
2019-02-26T05:26:20.889Z,-4.49
2019-02-26T05:27:25.101Z,-4.44
2019-02-26T05:28:29.912Z,-4.48
2019-02-26T05:29:34.241Z,-4.51
2019-02-26T05:30:40.278Z,-4.57
2019-02-26T05:31:44.724Z,-4.65
2019-02-26T05:32:48.370Z,-4.69
2019-02-26T05:33:54.608Z,-4.69
2019-02-26T05:34:57.476Z,-4.60
2019-02-26T05:36:01.103Z,-4.53
2019-02-26T05:37:08.169Z,-4.38
2019-02-26T05:38:11.054Z,-4.27
2019-02-26T05:39:18.107Z,-4.24
2019-02-26T05:40:22.264Z,-4.17
2019-02-26T05:41:26.319Z,-4.13
2019-02-26T05:42:29.959Z,-4.13
2019-02-26T05:43:33.963Z,-4.19
2019-02-26T05:44:37.732Z,-4.27
2019-02-26T05:45:41.410Z,-4.30
2019-02-26T05:46:47.303Z,-4.31
2019-02-26T05:47:51.386Z,-4.30
2019-02-26T05:48:55.723Z,-4.26
2019-02-26T05:49:59.995Z,-4.18
2019-02-26T05:51:05.697Z,-4.15
2019-02-26T05:52:10.095Z,-4.08
2019-02-26T05:53:13.725Z,-4.06
2019-02-26T05:54:18.482Z,-4.10
2019-02-26T05:55:25.120Z,-4.07
2019-02-26T05:56:28.171Z,-4.01
2019-02-26T05:57:32.741Z,-3.96
2019-02-26T05:58:38.743Z,-3.93
2019-02-26T05:59:42.122Z,-3.94
2019-02-26T06:00:45.809Z,-3.91
2019-02-26T06:01:52.804Z,-3.90
2019-02-26T06:02:54.778Z,-3.96
2019-02-26T06:03:58.456Z,-3.94
2019-02-26T06:05:02.106Z,-3.98
2019-02-26T06:06:05.735Z,-4.04
2019-02-26T06:07:09.814Z,-4.06
2019-02-26T06:08:13.449Z,-4.05
2019-02-26T06:09:19.500Z,-4.00
2019-02-26T06:10:24.512Z,-3.89
2019-02-26T06:11:30.846Z,-3.92
2019-02-26T06:12:35.349Z,-3.97
2019-02-26T06:13:41.142Z,-3.68
2019-02-26T06:14:43.956Z,-3.44
2019-02-26T06:15:47.586Z,-3.55
2019-02-26T06:16:53.771Z,-3.75
2019-02-26T06:17:56.614Z,-3.93
2019-02-26T06:19:00.266Z,-3.90
2019-02-26T06:20:12.659Z,-3.73
2019-02-26T06:21:18.439Z,-3.75
2019-02-26T06:22:24.349Z,-3.71
2019-02-26T06:23:28.286Z,-3.63
2019-02-26T06:24:33.273Z,-3.77
2019-02-26T06:25:38.560Z,-3.96
2019-02-26T06:26:43.199Z,-4.03
2019-02-26T06:27:47.660Z,-3.93
2019-02-26T06:28:52.897Z,-3.90
2019-02-26T06:29:58.138Z,-3.90
2019-02-26T06:31:02.026Z,-3.83
2019-02-26T06:32:16.710Z,-3.89
2019-02-26T06:33:20.351Z,-3.91
2019-02-26T06:34:24.024Z,-3.86
2019-02-26T06:35:27.663Z,-3.67
2019-02-26T06:36:31.236Z,-3.58
2019-02-26T06:37:35.920Z,-3.48
2019-02-26T06:38:40.248Z,-3.46
2019-02-26T06:39:43.920Z,-3.41
2019-02-26T06:40:49.011Z,-3.41
2019-02-26T06:41:52.921Z,-3.34
2019-02-26T06:42:56.562Z,-3.22
2019-02-26T06:44:00.639Z,-3.09
2019-02-26T06:45:06.481Z,-3.03
2019-02-26T06:46:12.186Z,-2.97
2019-02-26T06:47:16.164Z,-2.85
2019-02-26T06:48:22.368Z,-2.75
2019-02-26T06:49:26.892Z,-2.69
2019-02-26T06:50:31.827Z,-2.62
2019-02-26T06:51:36.066Z,-2.62
2019-02-26T06:52:42.186Z,-2.52
2019-02-26T06:53:49.266Z,-2.42
2019-02-26T06:54:57.299Z,-2.35
2019-02-26T06:55:58.563Z,-2.35
2019-02-26T06:57:02.719Z,-2.48
2019-02-26T06:58:21.547Z,-2.49
2019-02-26T06:59:33.840Z,-2.38
2019-02-26T07:00:36.338Z,-2.06
2019-02-26T07:01:41.986Z,-1.88
2019-02-26T07:02:46.378Z,-1.74
2019-02-26T07:03:50.042Z,-1.62
2019-02-26T07:04:53.688Z,-1.52
2019-02-26T07:05:57.324Z,-1.40
2019-02-26T07:07:01.943Z,-1.31
2019-02-26T07:08:06.628Z,-1.27
2019-02-26T07:09:10.996Z,-1.18
2019-02-26T07:10:19.027Z,-1.16
2019-02-26T07:11:21.601Z,-1.12
2019-02-26T07:12:26.491Z,-1.08
2019-02-26T07:13:30.233Z,-1.05
2019-02-26T07:14:34.493Z,-0.93
2019-02-26T07:15:38.152Z,-0.86
2019-02-26T07:16:43.385Z,-0.80
2019-02-26T07:17:47.083Z,-0.65
2019-02-26T07:18:50.692Z,-0.61
2019-02-26T07:19:55.919Z,-0.63
2019-02-26T07:21:00.326Z,-0.54
2019-02-26T07:22:08.490Z,-0.62
2019-02-26T07:24:24.352Z,-0.29
2019-02-26T07:25:27.439Z,-0.14
2019-02-26T07:26:31.068Z,0.00
2019-02-26T07:27:35.988Z,-0.12
2019-02-26T07:28:41.587Z,-0.20
2019-02-26T07:29:47.562Z,-0.16
2019-02-26T07:30:52.396Z,0.00
2019-02-26T07:31:57.106Z,0.11
2019-02-26T07:33:03.036Z,0.18
2019-02-26T07:34:06.975Z,0.29
2019-02-26T07:35:13.829Z,0.46
2019-02-26T07:36:18.511Z,0.55
2019-02-26T07:37:22.124Z,0.66
2019-02-26T07:38:27.630Z,0.76
2019-02-26T07:39:33.828Z,0.78
2019-02-26T07:40:39.948Z,0.86
2019-02-26T07:41:44.657Z,1.02
2019-02-26T07:42:49.381Z,1.28
2019-02-26T07:43:54.747Z,1.53
2019-02-26T07:44:58.589Z,1.60
2019-02-26T07:46:04.263Z,1.62
2019-02-26T07:47:08.869Z,1.66
2019-02-26T07:48:18.596Z,1.76
2019-02-26T07:49:20.062Z,2.07
2019-02-26T07:50:23.773Z,2.28
2019-02-26T07:51:29.450Z,2.39
2019-02-26T07:52:34.295Z,2.63
2019-02-26T07:53:42.045Z,2.85
2019-02-26T07:54:45.491Z,2.97
2019-02-26T07:55:49.891Z,2.81
2019-02-26T07:56:55.241Z,2.78
2019-02-26T07:57:59.096Z,2.98
2019-02-26T07:59:06.790Z,3.24
2019-02-26T08:00:17.237Z,3.39
2019-02-26T08:01:20.885Z,3.65
2019-02-26T08:02:26.052Z,3.79
2019-02-26T08:03:30.053Z,3.77
2019-02-26T08:04:36.246Z,3.85
2019-02-26T08:05:39.544Z,3.99
2019-02-26T08:06:43.186Z,4.08
2019-02-26T08:07:48.631Z,4.45
2019-02-26T08:08:52.261Z,4.66
2019-02-26T08:09:55.938Z,4.85
2019-02-26T08:10:59.619Z,5.07
2019-02-26T08:12:04.340Z,5.18
2019-02-26T08:13:08.708Z,5.29
2019-02-26T08:14:14.345Z,5.31
2019-02-26T08:15:18.104Z,5.13
2019-02-26T08:16:23.600Z,5.26
2019-02-26T08:17:27.084Z,5.53
2019-02-26T08:18:31.026Z,5.82
2019-02-26T08:19:36.884Z,5.88
2019-02-26T08:20:40.370Z,6.05
2019-02-26T08:21:45.564Z,6.36
2019-02-26T08:22:51.590Z,6.64
2019-02-26T08:23:55.184Z,6.84
2019-02-26T08:24:58.761Z,7.01
2019-02-26T08:26:02.785Z,7.22
2019-02-26T08:27:08.458Z,7.32
2019-02-26T08:28:13.507Z,7.63
2019-02-26T08:29:17.190Z,7.60
2019-02-26T08:30:23.395Z,7.57
2019-02-26T08:31:27.941Z,7.70
2019-02-26T08:32:33.427Z,7.82
2019-02-26T08:33:37.356Z,7.85
2019-02-26T08:34:41.042Z,7.80
2019-02-26T08:35:44.672Z,7.73
2019-02-26T08:36:48.228Z,7.73
2019-02-26T08:37:51.961Z,7.83
2019-02-26T08:38:57.079Z,7.80
2019-02-26T08:40:00.991Z,7.96
2019-02-26T08:41:04.611Z,7.96
2019-02-26T08:42:09.552Z,8.02
2019-02-26T08:43:13.258Z,7.87
2019-02-26T08:44:16.885Z,8.05
2019-02-26T08:45:23.610Z,8.11
2019-02-26T08:46:26.758Z,8.29
2019-02-26T08:47:30.441Z,8.09
2019-02-26T08:48:34.510Z,8.17
2019-02-26T08:49:40.122Z,8.13
2019-02-26T08:50:45.859Z,8.00
2019-02-26T08:51:48.894Z,8.31
2019-02-26T08:52:55.357Z,8.55
2019-02-26T08:53:58.024Z,8.43
2019-02-26T08:55:01.602Z,8.21
2019-02-26T08:56:08.328Z,8.48
2019-02-26T08:57:12.024Z,8.70
2019-02-26T08:58:16.037Z,8.48
2019-02-26T08:59:20.439Z,8.53
2019-02-26T09:00:24.188Z,8.89
2019-02-26T09:01:27.873Z,9.13
2019-02-26T09:02:31.506Z,9.32
2019-02-26T09:03:40.613Z,9.45
2019-02-26T09:04:42.506Z,9.54
2019-02-26T09:05:46.334Z,9.72
2019-02-26T09:06:52.333Z,9.96
2019-02-26T09:07:55.724Z,10.05
2019-02-26T09:09:00.219Z,10.28
2019-02-26T09:10:07.231Z,10.56
2019-02-26T09:11:13.362Z,10.72
2019-02-26T09:12:17.602Z,10.83
2019-02-26T09:13:21.772Z,10.89
2019-02-26T09:14:25.551Z,10.99
2019-02-26T09:15:31.252Z,10.89
2019-02-26T09:16:34.612Z,10.65
2019-02-26T09:17:40.455Z,10.88
2019-02-26T09:18:43.703Z,10.92
2019-02-26T09:19:47.352Z,11.16
2019-02-26T09:20:51.020Z,11.43
2019-02-26T09:21:54.881Z,11.71
2019-02-26T09:23:10.964Z,12.15
2019-02-26T09:24:32.986Z,12.56
2019-02-26T09:27:00.455Z,12.66
2019-02-26T09:28:05.027Z,12.87
2019-02-26T09:29:26.683Z,13.11
2019-02-26T09:30:33.522Z,13.36
2019-02-26T09:31:55.344Z,13.58
2019-02-26T09:33:00.876Z,13.69
2019-02-26T09:34:04.444Z,13.73
2019-02-26T09:35:10.823Z,13.93
2019-02-26T09:36:15.755Z,13.89
2019-02-26T09:37:20.569Z,14.37
2019-02-26T09:38:25.564Z,14.37
2019-02-26T09:39:29.430Z,14.31
2019-02-26T09:40:34.550Z,14.31
2019-02-26T09:41:40.217Z,14.76
2019-02-26T09:42:51.566Z,14.69
2019-02-26T09:43:53.135Z,15.09
2019-02-26T09:44:57.763Z,15.30
2019-02-26T09:46:04.004Z,15.18
2019-02-26T09:47:08.130Z,15.50
2019-02-26T09:48:12.347Z,15.74
2019-02-26T09:49:17.152Z,15.92
2019-02-26T09:50:22.660Z,15.87
2019-02-26T09:51:28.236Z,15.92
2019-02-26T09:52:32.673Z,15.91
2019-02-26T09:53:36.517Z,16.23
2019-02-26T09:54:42.730Z,16.88
2019-02-26T09:55:45.604Z,16.88
2019-02-26T09:56:49.233Z,17.01
2019-02-26T09:57:52.890Z,16.70
2019-02-26T09:58:56.911Z,16.70
2019-02-26T10:00:03.066Z,16.67
2019-02-26T10:01:06.890Z,16.56
2019-02-26T10:02:11.247Z,16.56
2019-02-26T10:03:15.110Z,16.67
2019-02-26T10:04:19.714Z,17.12
2019-02-26T10:05:24.202Z,17.11
2019-02-26T10:06:27.840Z,17.43
2019-02-26T10:07:35.537Z,17.78
2019-02-26T10:08:36.889Z,17.79
2019-02-26T10:09:45.774Z,17.79
2019-02-26T10:10:45.845Z,17.34
2019-02-26T10:11:51.459Z,16.43
2019-02-26T10:12:58.782Z,15.53
2019-02-26T10:14:02.720Z,15.30
2019-02-26T10:15:08.726Z,15.92
2019-02-26T10:16:12.325Z,15.92
2019-02-26T10:17:17.235Z,16.23
2019-02-26T10:18:23.856Z,17.43
2019-02-26T10:19:27.064Z,17.43
2019-02-26T10:20:31.835Z,17.88
2019-02-26T10:21:37.531Z,17.61
2019-02-26T10:22:41.022Z,17.80
2019-02-26T10:23:47.163Z,17.79
2019-02-26T10:24:50.020Z,17.65
2019-02-26T10:25:57.472Z,17.30
2019-02-26T10:27:03.004Z,16.96
2019-02-26T10:28:08.837Z,16.77
2019-02-26T10:29:10.161Z,16.93
2019-02-26T10:30:18.682Z,16.22
2019-02-26T10:31:25.034Z,15.60
2019-02-26T10:32:27.734Z,15.27
2019-02-26T10:33:35.941Z,14.72
2019-02-26T10:34:37.174Z,14.52
2019-02-26T10:35:44.315Z,14.47
2019-02-26T10:36:49.308Z,14.15
2019-02-26T10:38:02.810Z,14.09
2019-02-26T10:39:08.288Z,14.30
2019-02-26T10:40:14.362Z,14.55
2019-02-26T10:41:17.483Z,14.54
2019-02-26T10:42:21.123Z,14.65
2019-02-26T10:43:24.801Z,14.66
2019-02-26T10:44:29.315Z,14.54
2019-02-26T10:45:36.261Z,14.78
2019-02-26T10:46:41.403Z,14.91
2019-02-26T10:47:44.014Z,15.15
2019-02-26T10:48:48.089Z,15.27
2019-02-26T10:49:53.672Z,15.60
2019-02-26T10:50:58.548Z,16.07
2019-02-26T10:52:02.171Z,16.58
2019-02-26T10:53:09.849Z,16.58
2019-02-26T10:54:13.387Z,16.80
2019-02-26T10:55:17.629Z,17.15
2019-02-26T10:56:22.777Z,17.08
2019-02-26T10:57:28.539Z,17.36
2019-02-26T10:58:32.704Z,17.47
2019-02-26T10:59:36.375Z,17.77
2019-02-26T11:00:40.803Z,18.24
2019-02-26T11:01:46.586Z,18.00
2019-02-26T11:02:50.986Z,18.18
2019-02-26T11:03:55.298Z,17.95
2019-02-26T11:04:59.087Z,18.11
2019-02-26T11:06:04.596Z,18.36
2019-02-26T11:07:09.311Z,18.53
2019-02-26T11:08:13.437Z,18.72
2019-02-26T11:09:21.199Z,19.16
2019-02-26T11:10:23.283Z,19.39
2019-02-26T11:11:27.848Z,20.28
2019-02-26T11:12:33.974Z,20.60
2019-02-26T11:13:37.758Z,20.62
2019-02-26T11:14:44.188Z,20.53
2019-02-26T11:15:48.864Z,20.57
2019-02-26T11:16:52.838Z,20.76
2019-02-26T11:17:56.483Z,20.74
2019-02-26T11:19:01.984Z,20.55
2019-02-26T11:20:08.518Z,20.51
2019-02-26T11:21:12.186Z,20.69
2019-02-26T11:22:18.311Z,20.79
2019-02-26T11:23:30.270Z,20.89
2019-02-26T11:24:30.249Z,20.85
2019-02-26T11:25:32.311Z,21.43
2019-02-26T11:26:38.154Z,21.70
2019-02-26T11:27:43.480Z,21.93
2019-02-26T11:28:47.962Z,21.82
2019-02-26T11:29:52.038Z,21.71
2019-02-26T11:30:56.989Z,21.55
2019-02-26T11:32:01.707Z,20.96
2019-02-26T11:33:10.143Z,20.51
2019-02-26T11:34:13.388Z,20.26
2019-02-26T11:35:20.392Z,20.51
2019-02-26T11:36:25.119Z,21.25
2019-02-26T11:37:29.484Z,21.35
2019-02-26T11:38:36.662Z,20.88
2019-02-26T11:39:40.906Z,20.56
2019-02-26T11:40:44.530Z,20.25
2019-02-26T11:41:50.526Z,20.62
2019-02-26T11:42:53.678Z,21.23
2019-02-26T11:43:57.412Z,21.77
2019-02-26T11:45:01.070Z,21.09
2019-02-26T11:46:06.783Z,21.23
2019-02-26T11:47:11.151Z,21.18
2019-02-26T11:48:17.667Z,20.53
2019-02-26T11:49:21.947Z,19.33
2019-02-26T11:50:28.010Z,18.64
2019-02-26T11:51:37.076Z,18.49
2019-02-26T11:52:37.331Z,18.92
2019-02-26T11:53:41.009Z,19.27
2019-02-26T11:54:44.742Z,19.67
2019-02-26T11:55:51.320Z,20.11
2019-02-26T11:56:53.742Z,20.54
2019-02-26T11:57:58.423Z,20.86
2019-02-26T11:59:02.138Z,21.34
2019-02-26T12:00:09.558Z,21.39
2019-02-26T12:01:13.511Z,21.67
2019-02-26T12:02:25.385Z,22.13
2019-02-26T12:03:25.032Z,22.37
2019-02-26T12:04:28.054Z,22.78
2019-02-26T12:05:34.072Z,21.92
2019-02-26T12:06:37.079Z,21.87
2019-02-26T12:07:40.740Z,21.57
2019-02-26T12:08:45.345Z,21.42
2019-02-26T12:09:50.149Z,21.42
2019-02-26T12:10:57.647Z,20.75
2019-02-26T12:12:00.982Z,20.46
2019-02-26T12:13:05.379Z,20.05
2019-02-26T12:14:10.960Z,19.21
2019-02-26T12:15:16.005Z,18.42
2019-02-26T12:16:19.630Z,18.47
2019-02-26T12:17:23.284Z,19.13
2019-02-26T12:18:26.952Z,19.32
2019-02-26T12:19:31.112Z,19.98
2019-02-26T12:20:38.493Z,20.70
2019-02-26T12:21:41.719Z,20.80
2019-02-26T12:22:47.952Z,20.47
2019-02-26T12:23:50.831Z,20.46
2019-02-26T12:24:56.088Z,20.60
2019-02-26T12:26:02.041Z,20.41
2019-02-26T12:27:07.341Z,20.09
2019-02-26T12:28:13.190Z,19.71
2019-02-26T12:29:18.551Z,19.48
2019-02-26T12:30:22.577Z,19.34
2019-02-26T12:31:28.411Z,19.29
2019-02-26T12:32:32.953Z,18.83
2019-02-26T12:33:36.765Z,18.95
2019-02-26T12:34:41.226Z,19.02
2019-02-26T12:35:45.843Z,19.68
2019-02-26T12:36:51.148Z,20.16
2019-02-26T12:37:56.638Z,20.52
2019-02-26T12:39:02.499Z,20.74
2019-02-26T12:40:10.409Z,20.82
2019-02-26T12:41:15.959Z,21.02
2019-02-26T12:42:21.686Z,21.16
2019-02-26T12:43:24.810Z,21.38
2019-02-26T12:44:29.101Z,21.05
2019-02-26T12:45:37.717Z,20.97
2019-02-26T12:46:39.254Z,20.70
2019-02-26T12:47:45.515Z,20.35
2019-02-26T12:48:50.352Z,19.94
2019-02-26T12:49:55.651Z,19.75
2019-02-26T12:51:01.410Z,19.74
2019-02-26T12:52:04.761Z,19.16
2019-02-26T12:53:12.035Z,18.88
2019-02-26T12:54:15.688Z,18.26
2019-02-26T12:55:19.220Z,17.79
2019-02-26T12:56:24.841Z,17.07
2019-02-26T12:57:31.543Z,16.93
2019-02-26T12:58:34.773Z,16.52
2019-02-26T12:59:38.432Z,16.43
2019-02-26T13:00:42.365Z,16.24
2019-02-26T13:01:48.511Z,16.32
2019-02-26T13:02:52.283Z,16.11
2019-02-26T13:03:56.176Z,15.49
2019-02-26T13:04:59.843Z,15.33
2019-02-26T13:06:06.009Z,15.50
2019-02-26T13:07:09.482Z,15.74
2019-02-26T13:08:16.643Z,16.07
2019-02-26T13:09:18.766Z,16.12
2019-02-26T13:10:26.829Z,16.12
2019-02-26T13:11:30.538Z,16.11
2019-02-26T13:12:34.178Z,16.07
2019-02-26T13:13:37.818Z,16.06
2019-02-26T13:14:41.483Z,16.19
2019-02-26T13:15:45.115Z,16.39
2019-02-26T13:16:51.709Z,16.39
2019-02-26T13:17:54.682Z,16.45
2019-02-26T13:19:03.790Z,16.53
2019-02-26T13:20:10.810Z,16.35
2019-02-26T13:21:13.476Z,16.40
2019-02-26T13:22:17.976Z,16.38
2019-02-26T13:23:21.886Z,16.44
2019-02-26T13:24:26.730Z,16.49
2019-02-26T13:25:30.618Z,16.51
2019-02-26T13:26:36.570Z,16.67
2019-02-26T13:27:43.809Z,16.83
2019-02-26T13:28:47.929Z,16.91
2019-02-26T13:29:55.238Z,17.08
2019-02-26T13:31:01.331Z,17.01
2019-02-26T13:32:01.800Z,16.90
2019-02-26T13:33:10.656Z,16.85
2019-02-26T13:34:14.032Z,16.47
2019-02-26T13:35:16.426Z,16.01
2019-02-26T13:36:20.785Z,15.69
2019-02-26T13:37:26.623Z,15.44
2019-02-26T13:38:36.872Z,15.31
2019-02-26T13:39:38.392Z,15.31
2019-02-26T13:40:40.516Z,15.17
2019-02-26T13:41:44.205Z,15.11
2019-02-26T13:42:56.569Z,14.83
2019-02-26T13:43:53.251Z,14.74
2019-02-26T13:44:56.929Z,14.58
2019-02-26T13:46:00.564Z,14.58
2019-02-26T13:47:04.369Z,14.57
2019-02-26T13:48:07.999Z,14.57
2019-02-26T13:49:11.634Z,14.46
2019-02-26T13:50:26.746Z,14.43
2019-02-26T13:51:30.316Z,14.14
2019-02-26T13:52:33.988Z,14.04
2019-02-26T13:53:37.628Z,14.14
2019-02-26T13:54:41.361Z,14.28
2019-02-26T13:55:45.422Z,14.45
2019-02-26T13:56:49.062Z,14.46
2019-02-26T13:57:52.803Z,14.55
2019-02-26T13:58:56.445Z,14.53
2019-02-26T14:00:00.100Z,14.53
2019-02-26T14:01:04.498Z,14.66
2019-02-26T14:02:08.472Z,14.63
2019-02-26T14:03:12.125Z,14.55
2019-02-26T14:04:15.693Z,14.54